Time;durP1;ratioP1;P1;durP2;ratioP2;P2;SDS_P1;SDS_P2;PMS_P1;PMS_P2;Temp;Humidity;BMP_temperature;BMP_pressure;BME280_temperature;BME280_humidity;BME280_pressure;Samples;Min_cycle;Max_cycle;Signal;HPM_P1;HPM_P2
2021/03/02 00:01:13;;;;;;;283.17;32.38;;;;;;;-141.50;100.00;63355.56;5009746;28;20042;-77
2021/03/02 00:03:40;;;;;;;291.48;31.38;;;;;;;-141.50;100.00;63355.56;5009652;28;20133;-78
2021/03/02 00:06:08;;;;;;;517.63;36.75;;;;;;;-141.50;100.00;63355.56;4993121;28;20044;-77
2021/03/02 00:08:38;;;;;;;477.73;35.33;;;;;;;-141.50;100.00;63355.56;4993453;28;20516;-76
2021/03/02 00:11:05;;;;;;;263.42;29.20;;;;;;;-141.50;100.00;63355.56;4997517;28;20045;-74
2021/03/02 00:13:32;;;;;;;265.92;28.25;;;;;;;-141.50;100.00;63355.56;5018982;28;20136;-77
2021/03/02 00:16:01;;;;;;;256.52;28.15;;;;;;;-141.50;100.00;63355.56;5019086;28;20078;-77
2021/03/02 00:18:35;;;;;;;277.73;28.95;;;;;;;-141.50;100.00;63355.56;5016867;28;20082;-77
2021/03/02 00:21:11;;;;;;;177.30;27.33;;;;;;;-141.50;100.00;63355.56;4999761;28;20077;-77
2021/03/02 00:23:41;;;;;;;181.63;26.20;;;;;;;-141.50;100.00;63355.56;5000585;28;20121;-77
2021/03/02 00:26:11;;;;;;;159.65;27.38;;;;;;;-141.50;100.00;63355.56;5015870;28;20547;-77
2021/03/02 00:28:39;;;;;;;140.90;27.17;;;;;;;-141.50;100.00;63355.56;5016464;28;20041;-77
2021/03/02 00:31:07;;;;;;;172.55;26.75;;;;;;;-141.50;100.00;63355.56;4998747;28;20042;-77
2021/03/02 00:33:34;;;;;;;198.48;26.02;;;;;;;-141.50;100.00;63355.56;5018526;28;20046;-77
2021/03/02 00:36:01;;;;;;;233.32;28.23;;;;;;;-141.50;100.00;63355.56;4993609;28;20493;-76
2021/03/02 00:38:27;;;;;;;111.18;24.48;;;;;;;-141.50;100.00;63355.56;5010815;28;20042;-77
2021/03/02 00:40:54;;;;;;;109.63;24.75;;;;;;;-141.50;100.00;63355.56;4994063;28;20046;-78
2021/03/02 00:43:20;;;;;;;85.82;23.30;;;;;;;-141.50;100.00;63355.56;4996020;28;20046;-76
2021/03/02 00:45:46;;;;;;;80.55;22.95;;;;;;;-141.50;100.00;63355.56;5013936;28;20073;-76
2021/03/02 00:48:12;;;;;;;90.30;23.08;;;;;;;-141.50;100.00;63355.56;5013843;28;20096;-77
2021/03/02 00:50:39;;;;;;;154.73;24.15;;;;;;;-141.50;100.00;63355.56;5014539;28;20049;-76
2021/03/02 00:53:06;;;;;;;80.80;23.25;;;;;;;-141.50;100.00;63355.56;5016234;28;20076;-78
2021/03/02 00:55:32;;;;;;;132.55;23.80;;;;;;;-141.50;100.00;63355.56;5013460;28;20486;-77
2021/03/02 00:57:58;;;;;;;154.55;24.40;;;;;;;-141.50;100.00;63355.56;5012916;28;20080;-78
2021/03/02 01:00:25;;;;;;;85.50;24.17;;;;;;;-141.50;100.00;63355.56;5012702;28;20408;-77
2021/03/02 01:02:51;;;;;;;75.88;23.25;;;;;;;-141.50;100.00;63355.56;5014196;28;20077;-78
2021/03/02 01:05:17;;;;;;;161.27;25.25;;;;;;;-141.50;100.00;63355.56;4980662;28;20061;-78
2021/03/02 01:07:44;;;;;;;106.88;23.48;;;;;;;-141.50;100.00;63355.56;4997239;28;20053;-75
2021/03/02 01:10:11;;;;;;;158.55;26.05;;;;;;;-141.50;100.00;63355.56;5012868;28;20072;-76
2021/03/02 01:12:37;;;;;;;89.55;25.02;;;;;;;-141.50;100.00;63355.56;5014017;28;20056;-75
2021/03/02 01:15:07;;;;;;;92.90;24.88;;;;;;;-141.50;100.00;63355.56;5013341;28;20046;-77
2021/03/02 01:17:34;;;;;;;81.07;23.92;;;;;;;-141.50;100.00;63355.56;5013819;28;20056;-76
2021/03/02 01:20:00;;;;;;;64.25;22.42;;;;;;;-141.50;100.00;63355.56;5012656;28;20073;-77
2021/03/02 01:22:27;;;;;;;91.22;23.33;;;;;;;-141.50;100.00;63355.56;4979387;28;20064;-76
2021/03/02 01:24:53;;;;;;;88.10;23.80;;;;;;;-141.50;100.00;63355.56;5013427;28;20096;-77
2021/03/02 01:27:19;;;;;;;89.97;24.73;;;;;;;-141.50;100.00;63355.56;4998332;28;20493;-76
2021/03/02 01:29:45;;;;;;;90.50;24.85;;;;;;;-141.50;100.00;63355.56;5007299;28;20080;-77
2021/03/02 01:32:11;;;;;;;67.97;21.65;;;;;;;-141.50;100.00;63355.56;4997674;28;20048;-78
2021/03/02 01:34:40;;;;;;;73.60;23.02;;;;;;;-141.50;100.00;63355.56;5014257;28;20104;-78
2021/03/02 01:37:06;;;;;;;67.38;23.05;;;;;;;-141.50;100.00;63355.56;5015163;28;20038;-78
2021/03/02 01:39:33;;;;;;;56.92;23.40;;;;;;;-141.50;100.00;63355.56;5011709;28;20086;-77
2021/03/02 01:42:02;;;;;;;69.60;23.65;;;;;;;-141.50;100.00;63355.56;5013980;28;20049;-77
2021/03/02 01:44:29;;;;;;;85.60;23.33;;;;;;;-141.50;100.00;63355.56;5012551;28;20553;-76
2021/03/02 01:46:56;;;;;;;122.72;24.85;;;;;;;-141.50;100.00;63355.56;5010990;28;20075;-76
2021/03/02 01:49:23;;;;;;;121.93;25.92;;;;;;;-141.50;100.00;63355.56;5012883;28;20535;-77
2021/03/02 01:51:52;;;;;;;145.10;27.17;;;;;;;-141.50;100.00;63355.56;4979835;28;20096;-77
2021/03/02 01:54:18;;;;;;;186.02;28.13;;;;;;;-141.50;100.00;63355.56;5011662;28;20060;-76
2021/03/02 01:56:44;;;;;;;158.45;27.00;;;;;;;-141.50;100.00;63355.56;4994129;28;20042;-75
2021/03/02 01:59:12;;;;;;;143.20;26.70;;;;;;;-141.50;100.00;63355.56;5011814;28;20555;-76
2021/03/02 02:01:38;;;;;;;140.45;26.88;;;;;;;-141.50;100.00;63355.56;5013034;28;20057;-75
2021/03/02 02:04:20;;;;;;;128.60;27.95;;;;;;;-141.50;100.00;63355.56;5013237;28;20044;-77
2021/03/02 02:07:14;;;;;;;139.32;27.98;;;;;;;-141.50;100.00;63355.56;4994208;28;20512;-76
2021/03/02 02:10:07;;;;;;;176.82;27.40;;;;;;;-141.50;100.00;63355.56;5012665;28;20064;-77
2021/03/02 02:12:40;;;;;;;111.78;26.30;;;;;;;-141.50;100.00;63355.56;5012877;28;20038;-77
2021/03/02 02:15:10;;;;;;;70.13;24.73;;;;;;;-141.50;100.00;63355.56;4994403;28;20618;-75
2021/03/02 02:17:45;;;;;;;94.93;26.33;;;;;;;-141.50;100.00;63355.56;4995593;28;20401;-76
2021/03/02 02:20:21;;;;;;;120.55;28.98;;;;;;;-141.50;100.00;63355.56;5012715;28;20053;-77
2021/03/02 02:23:07;;;;;;;74.07;25.75;;;;;;;-141.50;100.00;63355.56;4995109;28;20089;-76
2021/03/02 02:25:56;;;;;;;68.70;26.55;;;;;;;-141.50;100.00;63355.56;5015742;28;20493;-76
2021/03/02 02:28:25;;;;;;;65.53;25.20;;;;;;;-141.50;100.00;63355.56;5016498;28;20452;-75
2021/03/02 02:30:56;;;;;;;64.80;25.02;;;;;;;-141.50;100.00;63355.56;5013366;28;20117;-76
2021/03/02 02:33:30;;;;;;;60.30;24.27;;;;;;;-141.50;100.00;63355.56;5015260;28;20042;-76
2021/03/02 02:36:00;;;;;;;64.55;23.33;;;;;;;-141.50;100.00;63355.56;5018456;28;20058;-77
2021/03/02 02:38:28;;;;;;;64.25;24.33;;;;;;;-141.50;100.00;63355.56;5018144;28;20049;-76
2021/03/02 02:40:55;;;;;;;66.97;24.00;;;;;;;-141.50;100.00;63355.56;4998348;28;20060;-77
2021/03/02 02:43:22;;;;;;;62.15;23.60;;;;;;;-141.50;100.00;63355.56;5014971;28;20100;-76
2021/03/02 02:45:50;;;;;;;63.75;23.98;;;;;;;-141.50;100.00;63355.56;5012749;28;20071;-77
2021/03/02 02:48:17;;;;;;;67.00;24.63;;;;;;;-141.50;100.00;63355.56;5012744;28;20046;-77
2021/03/02 02:50:45;;;;;;;62.40;23.73;;;;;;;-141.50;100.00;63355.56;5013605;28;20117;-76
2021/03/02 02:53:12;;;;;;;63.97;24.00;;;;;;;-141.50;100.00;63355.56;5014459;28;20045;-75
2021/03/02 02:55:43;;;;;;;65.93;24.98;;;;;;;-141.50;100.00;63355.56;5013209;28;20103;-78
2021/03/02 02:58:12;;;;;;;64.75;24.38;;;;;;;-141.50;100.00;63355.56;5013097;28;20048;-77
2021/03/02 03:00:40;;;;;;;59.25;23.77;;;;;;;-141.50;100.00;63355.56;5012796;28;20048;-77
2021/03/02 03:03:10;;;;;;;57.67;23.52;;;;;;;-141.50;100.00;63355.56;4995901;28;20503;-77
2021/03/02 03:05:45;;;;;;;50.42;22.02;;;;;;;-141.50;100.00;63355.56;5012498;28;20046;-76
2021/03/02 03:08:16;;;;;;;55.85;22.90;;;;;;;-141.50;100.00;63355.56;4995282;28;20050;-77
2021/03/02 03:10:45;;;;;;;48.58;21.15;;;;;;;-141.50;100.00;63355.56;4995537;28;20042;-77
2021/03/02 03:13:17;;;;;;;52.63;21.35;;;;;;;-141.50;100.00;63355.56;5012856;28;20038;-76
2021/03/02 03:15:55;;;;;;;55.15;22.05;;;;;;;-141.50;100.00;63355.56;5017729;28;20046;-76
2021/03/02 03:18:25;;;;;;;57.90;22.38;;;;;;;-141.50;100.00;63355.56;5019739;28;20041;-77
2021/03/02 03:20:58;;;;;;;49.42;22.17;;;;;;;-141.50;100.00;63355.56;4999145;28;20451;-74
2021/03/02 03:23:24;;;;;;;50.40;20.88;;;;;;;-141.50;100.00;63355.56;5016730;28;20046;-76
2021/03/02 03:25:50;;;;;;;46.92;20.63;;;;;;;-141.50;100.00;63355.56;5013123;28;20045;-77
2021/03/02 03:28:18;;;;;;;43.25;19.63;;;;;;;-141.50;100.00;63355.56;4997749;28;20277;-77
2021/03/02 03:30:47;;;;;;;48.55;20.73;;;;;;;-141.50;100.00;63355.56;4994746;28;20045;-78
2021/03/02 03:33:16;;;;;;;42.80;19.60;;;;;;;-141.50;100.00;63355.56;5011938;28;20134;-77
2021/03/02 03:35:43;;;;;;;43.83;19.77;;;;;;;-141.50;100.00;63355.56;4996490;28;20128;-78
2021/03/02 03:38:11;;;;;;;44.42;20.42;;;;;;;-141.50;100.00;63355.56;5018637;28;20046;-77
2021/03/02 03:40:38;;;;;;;38.83;18.65;;;;;;;-141.50;100.00;63355.56;5012225;28;20034;-75
2021/03/02 03:43:05;;;;;;;39.10;19.25;;;;;;;-141.50;100.00;63355.56;5012311;28;20046;-76
2021/03/02 03:45:31;;;;;;;43.53;19.08;;;;;;;-141.50;100.00;63355.56;4980898;28;20046;-77
2021/03/02 03:47:57;;;;;;;40.63;20.08;;;;;;;-141.50;100.00;63355.56;5011959;28;20555;-77
2021/03/02 03:50:24;;;;;;;38.78;18.75;;;;;;;-141.50;100.00;63355.56;4995940;28;20092;-76
2021/03/02 03:52:55;;;;;;;39.28;19.00;;;;;;;-141.50;100.00;63355.56;5013293;28;20405;-76
2021/03/02 03:55:25;;;;;;;41.90;20.23;;;;;;;-141.50;100.00;63355.56;5012915;28;20081;-78
2021/03/02 03:57:52;;;;;;;40.40;20.10;;;;;;;-141.50;100.00;63355.56;5013886;28;20041;-78
2021/03/02 04:00:20;;;;;;;42.25;19.95;;;;;;;-141.50;100.00;63355.56;5013138;28;20049;-77
2021/03/02 04:02:50;;;;;;;44.33;20.33;;;;;;;-141.50;100.00;63355.56;5013616;28;20330;-77
2021/03/02 04:05:19;;;;;;;46.10;20.27;;;;;;;-141.50;100.00;63355.56;4978685;28;20136;-75
2021/03/02 04:07:46;;;;;;;44.22;20.73;;;;;;;-141.50;100.00;63355.56;5009330;28;20034;-75
2021/03/02 04:10:15;;;;;;;42.45;19.85;;;;;;;-141.50;100.00;63355.56;5016597;28;20026;-74
2021/03/02 04:12:43;;;;;;;48.60;21.52;;;;;;;-141.50;100.00;63355.56;5012815;28;20029;-75
2021/03/02 04:15:26;;;;;;;34.90;16.00;;;;;;;-141.50;100.00;63355.56;5032590;28;20033;-75
2021/03/02 04:17:55;;;;;;;45.15;20.92;;;;;;;-141.50;100.00;63355.56;5013899;28;20551;-74
2021/03/02 04:20:21;;;;;;;48.10;21.65;;;;;;;-141.50;100.00;63355.56;5031935;28;20041;-75
2021/03/02 04:22:48;;;;;;;45.42;20.85;;;;;;;-141.50;100.00;63355.56;5026339;28;20105;-78
2021/03/02 04:25:15;;;;;;;47.78;21.50;;;;;;;-141.50;100.00;63355.56;5030450;23;20045;-79
2021/03/02 04:27:42;;;;;;;49.42;21.95;;;;;;;-141.50;100.00;63355.56;5017009;28;20056;-79
2021/03/02 04:30:08;;;;;;;43.20;20.05;;;;;;;-141.50;100.00;63355.56;5017832;28;20479;-80
2021/03/02 04:32:35;;;;;;;46.40;20.02;;;;;;;-141.50;100.00;63355.56;5016296;28;20068;-80
2021/03/02 04:35:02;;;;;;;44.50;21.60;;;;;;;-141.50;100.00;63355.56;5000447;28;20113;-79
2021/03/02 04:37:29;;;;;;;44.22;20.45;;;;;;;-141.50;100.00;63355.56;4983045;28;20046;-80
2021/03/02 04:39:55;;;;;;;42.88;20.35;;;;;;;-141.50;100.00;63355.56;5015293;28;20045;-80
2021/03/02 04:42:21;;;;;;;41.92;19.10;;;;;;;-141.50;100.00;63355.56;5015603;28;20076;-79
2021/03/02 04:44:47;;;;;;;41.00;19.38;;;;;;;-141.50;100.00;63355.56;4998525;28;20555;-79
2021/03/02 04:47:15;;;;;;;46.03;19.25;;;;;;;-141.50;100.00;63355.56;4997690;28;20527;-79
2021/03/02 04:49:41;;;;;;;41.47;19.60;;;;;;;-141.50;100.00;63355.56;4983438;28;20113;-80
2021/03/02 04:52:08;;;;;;;40.50;19.27;;;;;;;-141.50;100.00;63355.56;5000891;28;20065;-80
2021/03/02 04:54:34;;;;;;;40.30;17.95;;;;;;;-141.50;100.00;63355.56;5017876;28;20052;-80
2021/03/02 04:57:00;;;;;;;37.92;18.60;;;;;;;-141.50;100.00;63355.56;4998873;28;20184;-80
2021/03/02 04:59:27;;;;;;;38.03;19.17;;;;;;;-141.50;100.00;63355.56;4981667;28;20141;-79
2021/03/02 05:01:53;;;;;;;41.75;19.08;;;;;;;-141.50;100.00;63355.56;5030167;28;20042;-80
2021/03/02 05:04:19;;;;;;;38.95;19.05;;;;;;;-141.50;100.00;63355.56;4971153;28;20053;-80
2021/03/02 05:06:45;;;;;;;36.80;17.67;;;;;;;-141.50;100.00;63355.56;4983883;28;20074;-79
2021/03/02 05:09:12;;;;;;;39.38;17.63;;;;;;;-141.50;100.00;63355.56;5019826;28;20046;-80
2021/03/02 05:11:38;;;;;;;40.30;18.05;;;;;;;-141.50;100.00;63355.56;5019244;28;20539;-80
2021/03/02 05:14:04;;;;;;;42.72;20.80;;;;;;;-141.50;100.00;63355.56;4987382;28;20038;-80
2021/03/02 05:16:31;;;;;;;41.33;20.23;;;;;;;-141.50;100.00;63355.56;4987896;28;20061;-80
2021/03/02 05:18:57;;;;;;;41.95;19.45;;;;;;;-141.50;100.00;63355.56;5005665;28;20080;-80
2021/03/02 05:21:24;;;;;;;37.75;17.65;;;;;;;-141.50;100.00;63355.56;4972406;28;20107;-82
2021/03/02 05:23:51;;;;;;;35.63;17.95;;;;;;;-141.50;100.00;63355.56;4989130;28;20073;-80
2021/03/02 05:26:21;;;;;;;33.90;16.85;;;;;;;-141.50;100.00;63355.56;5006069;28;20144;-80
2021/03/02 05:28:49;;;;;;;34.00;17.08;;;;;;;-141.50;100.00;63355.56;4994597;28;20064;-80
2021/03/02 05:31:19;;;;;;;36.15;17.25;;;;;;;-141.50;100.00;63355.56;4990148;28;20045;-80
2021/03/02 05:33:50;;;;;;;33.95;16.50;;;;;;;-141.50;100.00;63355.56;5004346;28;20605;-80
2021/03/02 05:36:18;;;;;;;33.55;16.67;;;;;;;-141.50;100.00;63355.56;5002226;28;20073;-78
2021/03/02 05:38:44;;;;;;;35.30;17.02;;;;;;;-141.50;100.00;63355.56;4999436;28;20048;-79
2021/03/02 05:41:11;;;;;;;34.45;16.98;;;;;;;-141.50;100.00;63355.56;4982236;28;20061;-77
2021/03/02 05:43:42;;;;;;;37.85;18.55;;;;;;;-141.50;100.00;63355.56;5017004;28;20073;-79
2021/03/02 05:46:27;;;;;;;38.25;17.40;;;;;;;-141.50;100.00;63355.56;5017008;28;20068;-78
2021/03/02 05:48:54;;;;;;;38.53;18.25;;;;;;;-141.50;100.00;63355.56;5017250;28;20042;-79
2021/03/02 05:51:21;;;;;;;40.53;18.70;;;;;;;-141.50;100.00;63355.56;5017339;28;20038;-79
2021/03/02 05:53:49;;;;;;;35.15;17.15;;;;;;;-141.50;100.00;63355.56;4999367;28;20046;-79
2021/03/02 05:56:15;;;;;;;39.95;18.33;;;;;;;-141.50;100.00;63355.56;4976255;28;20042;-80
2021/03/02 05:58:42;;;;;;;40.75;18.55;;;;;;;-141.50;100.00;63355.56;4998126;28;20042;-79
2021/03/02 06:01:08;;;;;;;40.97;16.73;;;;;;;-141.50;100.00;63355.56;4968059;28;20051;-79
2021/03/02 06:03:36;;;;;;;37.42;17.17;;;;;;;-141.50;100.00;63355.56;5035810;28;20129;-78
2021/03/02 06:06:06;;;;;;;41.63;17.65;;;;;;;-141.50;100.00;63355.56;5011413;28;20073;-79
2021/03/02 06:08:34;;;;;;;38.80;17.80;;;;;;;-141.50;100.00;63355.56;4999350;28;20050;-79
2021/03/02 06:11:29;;;;;;;35.65;17.35;;;;;;;-141.50;100.00;63355.56;5000022;28;20073;-79
2021/03/02 06:14:16;;;;;;;39.42;18.67;;;;;;;-141.50;100.00;63355.56;5000314;28;20476;-80
2021/03/02 06:16:52;;;;;;;37.42;17.95;;;;;;;-141.50;100.00;63355.56;4999183;28;20046;-81
2021/03/02 06:19:42;;;;;;;39.67;18.10;;;;;;;-141.50;100.00;63355.56;5018022;28;20130;-81
2021/03/02 06:22:33;;;;;;;38.17;16.17;;;;;;;-141.50;100.00;63355.56;5017295;28;20044;-80
2021/03/02 06:25:01;;;;;;;36.92;16.73;;;;;;;-141.50;100.00;63355.56;4999259;28;20038;-80
2021/03/02 06:27:33;;;;;;;38.70;17.98;;;;;;;-141.50;100.00;63355.56;5015670;28;20093;-80
2021/03/02 06:30:11;;;;;;;35.90;17.05;;;;;;;-141.50;100.00;63355.56;5016716;28;20057;-79
2021/03/02 06:32:42;;;;;;;34.70;17.25;;;;;;;-141.50;100.00;63355.56;5005361;28;20053;-81
2021/03/02 06:35:10;;;;;;;41.45;18.10;;;;;;;-141.50;100.00;63355.56;5009135;28;20029;-82
2021/03/02 06:37:41;;;;;;;36.35;17.80;;;;;;;-141.50;100.00;63355.56;5017739;28;20489;-81
2021/03/02 06:40:09;;;;;;;39.10;17.65;;;;;;;-141.50;100.00;63355.56;5016415;28;20046;-81
2021/03/02 06:42:40;;;;;;;36.42;16.05;;;;;;;-141.50;100.00;63355.56;4997885;28;20042;-81
2021/03/02 06:45:15;;;;;;;35.35;17.23;;;;;;;-141.50;100.00;63355.56;4984235;28;20136;-81
2021/03/02 06:47:46;;;;;;;37.53;17.17;;;;;;;-141.50;100.00;63355.56;4982357;28;20149;-81
2021/03/02 06:50:13;;;;;;;43.67;17.85;;;;;;;-141.50;100.00;63355.56;5030630;28;20041;-80
2021/03/02 06:52:43;;;;;;;38.17;18.50;;;;;;;-141.50;100.00;63355.56;4982393;28;20046;-79
2021/03/02 06:55:16;;;;;;;40.33;18.25;;;;;;;-141.50;100.00;63355.56;4977543;28;20057;-80
2021/03/02 06:57:44;;;;;;;37.95;17.70;;;;;;;-141.50;100.00;63355.56;4988345;28;20033;-80
2021/03/02 07:00:13;;;;;;;41.20;20.45;;;;;;;-141.50;100.00;63355.56;5007914;28;20050;-80
2021/03/02 07:02:40;;;;;;;48.75;20.65;;;;;;;-141.50;100.00;63355.56;4982248;28;20057;-81
2021/03/02 07:05:18;;;;;;;44.75;18.80;;;;;;;-141.50;100.00;63355.56;4981389;28;20077;-80
2021/03/02 07:07:47;;;;;;;40.47;18.38;;;;;;;-141.50;100.00;63355.56;5012943;28;20137;-81
2021/03/02 07:10:15;;;;;;;44.33;19.55;;;;;;;-141.50;100.00;63355.56;4997256;28;20141;-81
2021/03/02 07:12:45;;;;;;;40.28;20.27;;;;;;;-141.50;100.00;63355.56;4996461;28;20048;-80
2021/03/02 07:15:17;;;;;;;47.03;20.42;;;;;;;-141.50;100.00;63355.56;4998553;28;20038;-81
2021/03/02 07:17:45;;;;;;;44.28;18.92;;;;;;;-141.50;100.00;63355.56;4997434;28;20038;-81
2021/03/02 07:20:17;;;;;;;39.70;20.00;;;;;;;-141.50;100.00;63355.56;5015267;28;20049;-80
2021/03/02 07:22:50;;;;;;;40.20;19.08;;;;;;;-141.50;100.00;63355.56;4997342;28;20045;-80
2021/03/02 07:25:22;;;;;;;43.65;21.05;;;;;;;-141.50;100.00;63355.56;4996653;28;20064;-81
2021/03/02 07:27:52;;;;;;;39.42;19.10;;;;;;;-141.50;100.00;63355.56;5014580;28;20038;-80
2021/03/02 07:30:18;;;;;;;43.33;18.52;;;;;;;-141.50;100.00;63355.56;5015074;28;20443;-80
2021/03/02 07:32:47;;;;;;;36.97;18.10;;;;;;;-141.50;100.00;63355.56;4981480;28;20373;-80
2021/03/02 07:35:21;;;;;;;36.60;16.15;;;;;;;-141.50;100.00;63355.56;4997310;28;20049;-81
2021/03/02 07:37:48;;;;;;;41.00;17.77;;;;;;;-141.50;100.00;63355.56;4995067;28;20042;-80
2021/03/02 07:40:19;;;;;;;39.75;16.05;;;;;;;-141.50;100.00;63355.56;4995670;28;20050;-81
2021/03/02 07:42:46;;;;;;;39.03;16.38;;;;;;;-141.50;100.00;63355.56;4980403;28;20050;-81
2021/03/02 07:45:14;;;;;;;34.50;14.43;;;;;;;-141.50;100.00;63355.56;4996561;28;20050;-80
2021/03/02 07:47:58;;;;;;;33.47;15.40;;;;;;;-141.50;100.00;63355.56;5015133;28;20049;-81
2021/03/02 07:50:27;;;;;;;31.25;13.98;;;;;;;-141.50;100.00;63355.56;5014781;28;20128;-81
2021/03/02 07:53:22;;;;;;;34.63;14.65;;;;;;;-141.50;100.00;63355.56;5014685;28;20121;-81
2021/03/02 07:56:15;;;;;;;32.13;13.98;;;;;;;-141.50;100.00;63355.56;4996709;28;20042;-80
2021/03/02 07:58:42;;;;;;;30.92;14.25;;;;;;;-141.50;100.00;63355.56;4995035;28;20511;-80
2021/03/02 08:01:22;;;;;;;31.17;14.65;;;;;;;-141.50;100.00;63355.56;4997006;28;20049;-79
2021/03/02 08:03:49;;;;;;;29.38;13.70;;;;;;;-141.50;100.00;63355.56;4978977;28;20248;-80
2021/03/02 08:06:22;;;;;;;73.20;28.05;;;;;;;-141.50;100.00;63355.56;4996130;28;20046;-80
2021/03/02 08:08:49;;;;;;;36.13;15.48;;;;;;;-141.50;100.00;63355.56;4996972;28;20497;-80
2021/03/02 08:11:29;;;;;;;30.90;12.30;;;;;;;-141.50;100.00;63355.56;5016981;28;20042;-79
2021/03/02 08:13:56;;;;;;;31.70;14.13;;;;;;;-141.50;100.00;63355.56;5004917;28;20053;-78
2021/03/02 08:16:58;;;;;;;28.02;12.32;;;;;;;-141.50;100.00;63355.56;5012544;28;20050;-78
2021/03/02 08:19:44;;;;;;;22.88;10.60;;;;;;;-141.50;100.00;63355.56;5013763;28;20049;-79
2021/03/02 08:22:17;;;;;;;28.05;11.20;;;;;;;-141.50;100.00;63355.56;4997178;28;20470;-79
2021/03/02 08:24:52;;;;;;;19.27;9.68;;;;;;;-141.50;100.00;63355.56;5013595;28;20058;-79
2021/03/02 08:27:52;;;;;;;28.50;10.35;;;;;;;-141.50;100.00;63355.56;5014232;28;20045;-79
2021/03/02 08:30:21;;;;;;;23.00;9.63;;;;;;;-141.50;100.00;63355.56;4995801;28;20129;-79
2021/03/02 08:32:48;;;;;;;22.25;9.82;;;;;;;-141.50;100.00;63355.56;4996158;28;20054;-79
2021/03/02 08:35:18;;;;;;;20.75;9.07;;;;;;;-141.50;100.00;63355.56;5014516;28;20065;-79
2021/03/02 08:37:49;;;;;;;22.42;9.95;;;;;;;-141.50;100.00;63355.56;4995746;28;20044;-79
2021/03/02 08:40:18;;;;;;;20.45;9.93;;;;;;;-141.50;100.00;63355.56;4995487;28;20049;-79
2021/03/02 08:43:06;;;;;;;22.95;10.23;;;;;;;-141.50;100.00;63355.56;4994922;28;20046;-79
2021/03/02 08:45:41;;;;;;;21.70;9.65;;;;;;;-141.50;100.00;63355.56;4995389;28;20053;-78
2021/03/02 08:48:17;;;;;;;22.27;9.20;;;;;;;-141.50;100.00;63355.56;4996102;28;20045;-78
2021/03/02 08:50:44;;;;;;;19.85;9.48;;;;;;;-141.50;100.00;63355.56;5000599;28;20053;-77
2021/03/02 08:53:25;;;;;;;22.92;9.38;;;;;;;-141.50;100.00;63355.56;4997449;28;20167;-78
2021/03/02 08:55:52;;;;;;;22.20;8.93;;;;;;;-141.50;100.00;63355.56;4995401;28;20216;-78
2021/03/02 08:58:39;;;;;;;22.23;9.68;;;;;;;-141.50;100.00;63355.56;5005291;28;20045;-79
2021/03/02 09:01:14;;;;;;;19.30;8.55;;;;;;;-141.50;100.00;63355.56;5019612;28;20057;-79
2021/03/02 09:03:44;;;;;;;18.40;9.10;;;;;;;-141.50;100.00;63355.56;5021426;28;20133;-78
2021/03/02 09:06:26;;;;;;;23.20;8.82;;;;;;;-141.50;100.00;63355.56;5019129;28;20042;-78
2021/03/02 09:09:02;;;;;;;20.88;8.52;;;;;;;-141.50;100.00;63355.56;5001152;28;20144;-78
2021/03/02 09:11:33;;;;;;;21.75;8.70;;;;;;;-141.50;100.00;63355.56;5019758;28;20065;-79
2021/03/02 09:14:02;;;;;;;20.52;9.02;;;;;;;-141.50;100.00;63355.56;5018567;28;20158;-78
2021/03/02 09:16:45;;;;;;;23.92;9.23;;;;;;;-141.50;100.00;63355.56;5016123;28;20057;-78
2021/03/02 09:19:32;;;;;;;20.70;8.80;;;;;;;-141.50;100.00;63355.56;4983116;28;20073;-79
2021/03/02 09:22:13;;;;;;;38.30;8.82;;;;;;;-141.50;100.00;63355.56;4999214;28;20053;-78
2021/03/02 09:24:44;;;;;;;20.30;8.70;;;;;;;-141.50;100.00;63355.56;4984550;28;20046;-78
2021/03/02 09:27:16;;;;;;;24.10;8.82;;;;;;;-141.50;100.00;63355.56;5015306;28;20398;-78
2021/03/02 09:29:47;;;;;;;20.38;8.75;;;;;;;-141.50;100.00;63355.56;4998830;28;20265;-78
2021/03/02 09:32:15;;;;;;;25.95;8.65;;;;;;;-141.50;100.00;63355.56;4999724;28;20042;-78
2021/03/02 09:34:46;;;;;;;19.00;8.52;;;;;;;-141.50;100.00;63355.56;4999516;28;20131;-80
2021/03/02 09:37:17;;;;;;;24.30;7.80;;;;;;;-141.50;100.00;63355.56;4982577;28;20038;-78
2021/03/02 09:39:54;;;;;;;19.63;8.43;;;;;;;-141.50;100.00;63355.56;4982150;28;20065;-78
2021/03/02 09:42:26;;;;;;;20.80;7.97;;;;;;;-141.50;100.00;63355.56;5002690;28;20053;-78
2021/03/02 09:44:57;;;;;;;21.25;7.97;;;;;;;-141.50;100.00;63355.56;5010192;28;20054;-78
2021/03/02 09:47:29;;;;;;;20.35;7.50;;;;;;;-141.50;100.00;63355.56;5027126;28;20100;-79
2021/03/02 09:50:04;;;;;;;16.02;7.05;;;;;;;-141.50;100.00;63355.56;5021462;28;20053;-78
2021/03/02 09:52:47;;;;;;;13.85;6.40;;;;;;;-141.50;100.00;63355.56;4991189;28;20129;-80
2021/03/02 09:55:32;;;;;;;15.60;7.10;;;;;;;-141.50;100.00;63355.56;5010747;28;20077;-78
2021/03/02 09:58:12;;;;;;;15.05;6.43;;;;;;;-141.50;100.00;63355.56;5005049;28;20062;-79
2021/03/02 10:00:40;;;;;;;12.55;6.00;;;;;;;-141.50;100.00;63355.56;5002338;28;20125;-78
2021/03/02 10:03:11;;;;;;;14.52;6.25;;;;;;;-141.50;100.00;63355.56;5023530;28;20552;-77
2021/03/02 10:05:39;;;;;;;13.30;6.05;;;;;;;-141.50;100.00;63355.56;5002667;28;20049;-78
2021/03/02 10:08:21;;;;;;;8.20;4.95;;;;;;;-141.50;100.00;63355.56;5017806;28;20076;-79
2021/03/02 10:10:48;;;;;;;11.55;5.32;;;;;;;-141.50;100.00;63355.56;5003573;28;20050;-79
2021/03/02 10:13:22;;;;;;;13.73;5.45;;;;;;;-141.50;100.00;63355.56;4986349;28;20046;-79
2021/03/02 10:15:48;;;;;;;12.40;5.60;;;;;;;-141.50;100.00;63355.56;5016748;28;20060;-78
2021/03/02 10:18:23;;;;;;;8.52;4.53;;;;;;;-141.50;100.00;63355.56;4997482;28;20486;-78
2021/03/02 10:21:04;;;;;;;7.53;4.63;;;;;;;-141.50;100.00;63355.56;5013763;28;20042;-78
2021/03/02 10:23:30;;;;;;;9.15;4.65;;;;;;;-141.50;100.00;63355.56;5015350;28;20285;-78
2021/03/02 10:25:58;;;;;;;13.00;4.72;;;;;;;-141.50;100.00;63355.56;5010907;23;20046;-76
2021/03/02 10:28:32;;;;;;;14.35;4.53;;;;;;;-141.50;100.00;63355.56;5013248;28;20057;-75
2021/03/02 10:30:59;;;;;;;9.10;5.28;;;;;;;-141.50;100.00;63355.56;5011838;28;20100;-75
2021/03/02 10:33:26;;;;;;;15.43;5.35;;;;;;;-141.50;100.00;63355.56;5010709;28;20056;-74
2021/03/02 10:35:53;;;;;;;11.70;4.97;;;;;;;-141.50;100.00;63355.56;5010453;28;20124;-75
2021/03/02 10:38:22;;;;;;;11.30;4.70;;;;;;;-141.50;100.00;63355.56;5009767;28;20041;-74
2021/03/02 10:40:48;;;;;;;10.85;4.40;;;;;;;-141.50;100.00;63355.56;5010944;28;20536;-75
2021/03/02 10:43:16;;;;;;;13.23;4.60;;;;;;;-141.50;100.00;63355.56;5025017;28;20041;-73
2021/03/02 10:45:42;;;;;;;12.02;4.63;;;;;;;-141.50;100.00;63355.56;5010521;28;20486;-74
2021/03/02 10:48:09;;;;;;;9.68;4.47;;;;;;;-141.50;100.00;63355.56;5009231;28;20045;-77
2021/03/02 10:50:36;;;;;;;7.55;4.60;;;;;;;-141.50;100.00;63355.56;5009341;28;20134;-76
2021/03/02 10:53:02;;;;;;;10.00;4.70;;;;;;;-141.50;100.00;63355.56;5010629;28;20042;-75
2021/03/02 10:55:28;;;;;;;15.27;9.45;;;;;;;-141.50;100.00;63355.56;5010132;28;20452;-76
2021/03/02 10:57:54;;;;;;;15.98;9.82;;;;;;;-141.50;100.00;63355.56;5009522;28;20397;-74
2021/03/02 11:00:21;;;;;;;14.15;9.32;;;;;;;-141.50;100.00;63355.56;5008939;28;20137;-75
2021/03/02 11:02:47;;;;;;;13.20;9.55;;;;;;;-141.50;100.00;63355.56;5009140;28;20053;-75
2021/03/02 11:05:15;;;;;;;17.52;11.60;;;;;;;-141.50;100.00;63355.56;5010234;28;20073;-75
2021/03/02 11:07:41;;;;;;;16.73;11.30;;;;;;;-141.50;100.00;63355.56;5010304;28;20088;-77
2021/03/02 11:10:07;;;;;;;18.65;11.57;;;;;;;-141.50;100.00;63355.56;5010101;28;20409;-74